Time;durP1;ratioP1;P1;durP2;ratioP2;P2;SDS_P1;SDS_P2;PMS_P1;PMS_P2;Temp;Humidity;BMP_temperature;BMP_pressure;BME280_temperature;BME280_humidity;BME280_pressure;Samples;Min_cycle;Max_cycle;Signal;HPM_P1;HPM_P2
2022/05/19 00:01:05;;;;;;;;;;;;;;;17.27;100.00;101797.19;2612039;36;19985;-50
2022/05/19 00:03:36;;;;;;;;;;;;;;;17.27;100.00;101786.28;2613513;36;19946;-47
2022/05/19 00:06:05;;;;;;;;;;;;;;;17.12;100.00;101781.44;2612618;36;20037;-51
2022/05/19 00:08:33;;;;;;;;;;;;;;;17.10;100.00;101778.00;2613105;31;20460;-50
2022/05/19 00:11:03;;;;;;;;;;;;;;;17.12;100.00;101776.00;2612584;31;20038;-50
2022/05/19 00:13:33;;;;;;;;;;;;;;;16.94;100.00;101770.53;2612888;36;19973;-54
2022/05/19 00:16:01;;;;;;;;;;;;;;;16.89;100.00;101772.88;2613057;31;20474;-55
2022/05/19 00:18:29;;;;;;;;;;;;;;;16.86;100.00;101770.44;2613211;36;19950;-54
2022/05/19 00:20:57;;;;;;;;;;;;;;;16.74;100.00;101758.97;2613136;36;20491;-49
2022/05/19 00:23:25;;;;;;;;;;;;;;;16.66;100.00;101764.28;2613175;36;19982;-48
2022/05/19 00:25:53;;;;;;;;;;;;;;;16.71;100.00;101753.81;2613146;36;19969;-50
2022/05/19 00:28:21;;;;;;;;;;;;;;;16.68;100.00;101759.56;2613704;31;20356;-52
2022/05/19 00:30:52;;;;;;;;;;;;;;;16.67;100.00;101749.72;2612457;36;20030;-49
2022/05/19 00:33:20;;;;;;;;;;;;;;;16.77;100.00;101750.50;2612920;36;20073;-53
2022/05/19 00:35:48;;;;;;;;;;;;;;;16.79;100.00;101753.88;2613292;36;20041;-54
2022/05/19 00:38:16;;;;;;;;;;;;;;;16.80;100.00;101739.31;2613162;36;20308;-54
2022/05/19 00:40:47;;;;;;;;;;;;;;;16.78;100.00;101740.47;2611870;36;19957;-53
2022/05/19 00:43:15;;;;;;;;;;;;;;;16.93;100.00;101729.91;2612262;36;19970;-54
2022/05/19 00:45:53;;;;;;;;;;;;;;;16.84;100.00;101734.38;2613007;36;20041;-53
2022/05/19 00:48:25;;;;;;;;;;;;;;;16.81;100.00;101727.41;2612934;36;20058;-49
2022/05/19 00:50:56;;;;;;;;;;;;;;;16.84;100.00;101722.66;2612798;36;19947;-48
2022/05/19 00:53:29;;;;;;;;;;;;;;;16.80;100.00;101722.97;2613053;36;20347;-50
2022/05/19 00:56:01;;;;;;;;;;;;;;;16.93;100.00;101714.47;2613279;36;20339;-51
2022/05/19 00:58:32;;;;;;;;;;;;;;;16.90;100.00;101725.66;2613351;36;19977;-50
2022/05/19 01:01:00;;;;;;;;;;;;;;;16.92;100.00;101715.47;2612385;36;20058;-49
2022/05/19 01:03:34;;;;;;;;;;;;;;;16.90;100.00;101711.19;2612908;36;19977;-51
2022/05/19 01:06:06;;;;;;;;;;;;;;;16.84;100.00;101712.63;2612987;36;19997;-48
2022/05/19 01:08:36;;;;;;;;;;;;;;;16.82;100.00;101704.63;2613148;31;20407;-53
2022/05/19 01:11:05;;;;;;;;;;;;;;;16.92;100.00;101695.59;2613103;36;19950;-50
2022/05/19 01:13:34;;;;;;;;;;;;;;;16.86;100.00;101713.34;2613420;36;19954;-48
2022/05/19 01:16:02;;;;;;;;;;;;;;;16.84;100.00;101718.06;2611981;36;20002;-51
2022/05/19 01:18:33;;;;;;;;;;;;;;;16.79;100.00;101709.56;2613448;36;20090;-48
2022/05/19 01:21:03;;;;;;;;;;;;;;;16.65;100.00;101713.66;2612498;36;20405;-49
2022/05/19 01:23:35;;;;;;;;;;;;;;;16.67;100.00;101716.25;2612886;36;20400;-50
2022/05/19 01:26:08;;;;;;;;;;;;;;;16.54;100.00;101705.75;2612831;36;20996;-48
2022/05/19 01:28:39;;;;;;;;;;;;;;;16.48;100.00;101709.09;2612728;36;19981;-54
2022/05/19 01:31:07;;;;;;;;;;;;;;;16.38;100.00;101701.00;2612654;36;20045;-50
2022/05/19 01:33:35;;;;;;;;;;;;;;;16.27;100.00;101699.38;2613006;36;20047;-48
2022/05/19 01:36:03;;;;;;;;;;;;;;;16.34;100.00;101688.72;2612305;36;19951;-48
2022/05/19 01:38:33;;;;;;;;;;;;;;;16.34;100.00;101684.16;2612803;36;20042;-54
2022/05/19 01:41:14;;;;;;;;;;;;;;;16.47;100.00;101672.91;2612734;36;19947;-49
2022/05/19 01:43:51;;;;;;;;;;;;;;;16.35;100.00;101663.28;2613011;36;20046;-50
2022/05/19 01:46:24;;;;;;;;;;;;;;;16.51;100.00;101652.56;2612373;31;19947;-49
2022/05/19 01:48:55;;;;;;;;;;;;;;;16.61;100.00;101633.47;2612225;36;20511;-55
2022/05/19 01:51:29;;;;;;;;;;;;;;;16.70;100.00;101635.22;2610928;36;19950;-50
2022/05/19 01:54:04;;;;;;;;;;;;;;;16.78;100.00;101648.03;2612720;36;19978;-53
2022/05/19 01:56:34;;;;;;;;;;;;;;;16.84;100.00;101644.66;2613369;36;19951;-52
2022/05/19 01:59:10;;;;;;;;;;;;;;;16.95;100.00;101638.19;2613155;31;20553;-53
2022/05/19 02:01:38;;;;;;;;;;;;;;;17.03;100.00;101635.50;2613235;36;20066;-52
2022/05/19 02:04:09;;;;;;;;;;;;;;;17.07;100.00;101636.88;2613233;36;19946;-54
2022/05/19 02:06:40;;;;;;;;;;;;;;;17.10;100.00;101630.28;2612226;36;19954;-51
2022/05/19 02:09:10;;;;;;;;;;;;;;;17.23;100.00;101636.13;2613152;36;20409;-49
2022/05/19 02:11:40;;;;;;;;;;;;;;;17.29;100.00;101640.94;2613327;36;19981;-52
2022/05/19 02:14:14;;;;;;;;;;;;;;;17.32;100.00;101629.72;2612666;36;20363;-47
2022/05/19 02:16:44;;;;;;;;;;;;;;;17.35;100.00;101636.72;2612647;36;19958;-47
2022/05/19 02:19:13;;;;;;;;;;;;;;;17.38;100.00;101622.78;2613143;31;19998;-49
2022/05/19 02:21:55;;;;;;;;;;;;;;;17.46;100.00;101625.56;2615179;31;20395;-49
2022/05/19 02:24:25;;;;;;;;;;;;;;;17.42;100.00;101621.44;2612677;36;19970;-52
2022/05/19 02:27:00;;;;;;;;;;;;;;;17.42;100.00;101618.72;2613381;36;19954;-49
2022/05/19 02:29:33;;;;;;;;;;;;;;;17.45;100.00;101615.69;2615946;36;19942;-52
2022/05/19 02:32:01;;;;;;;;;;;;;;;17.43;100.00;101612.28;2614132;36;19977;-54
2022/05/19 02:34:29;;;;;;;;;;;;;;;17.47;100.00;101613.63;2614555;36;20351;-54
2022/05/19 02:36:57;;;;;;;;;;;;;;;17.45;100.00;101618.41;2614070;36;20455;-54
2022/05/19 02:39:25;;;;;;;;;;;;;;;17.47;100.00;101621.78;2613899;36;19974;-54
2022/05/19 02:41:53;;;;;;;;;;;;;;;17.34;100.00;101621.41;2613201;36;20624;-49
2022/05/19 02:44:21;;;;;;;;;;;;;;;17.49;100.00;101618.91;2613585;36;19946;-53
2022/05/19 02:46:52;;;;;;;;;;;;;;;17.46;100.00;101624.69;2614160;36;20001;-50
2022/05/19 02:49:21;;;;;;;;;;;;;;;17.43;100.00;101620.44;2614546;31;20419;-52
2022/05/19 02:51:49;;;;;;;;;;;;;;;17.34;100.00;101625.00;2612977;36;20010;-50
2022/05/19 02:54:20;;;;;;;;;;;;;;;17.33;100.00;101619.72;2613149;36;20078;-54
2022/05/19 02:56:48;;;;;;;;;;;;;;;17.32;100.00;101628.88;2613672;31;19947;-49
2022/05/19 02:59:16;;;;;;;;;;;;;;;17.31;100.00;101627.16;2614408;36;20561;-54
2022/05/19 03:01:44;;;;;;;;;;;;;;;17.33;100.00;101633.31;2613678;36;19946;-56
2022/05/19 03:04:15;;;;;;;;;;;;;;;17.40;100.00;101628.94;2613441;36;20053;-50
2022/05/19 03:06:43;;;;;;;;;;;;;;;17.33;100.00;101630.59;2613649;36;20054;-51
2022/05/19 03:09:11;;;;;;;;;;;;;;;17.42;100.00;101637.78;2614062;36;20462;-53
2022/05/19 03:11:39;;;;;;;;;;;;;;;17.38;100.00;101646.44;2614055;36;20464;-53
2022/05/19 03:14:07;;;;;;;;;;;;;;;17.44;100.00;101649.34;2612910;36;20070;-50
2022/05/19 03:16:36;;;;;;;;;;;;;;;17.56;100.00;101647.19;2614652;31;20113;-51
2022/05/19 03:19:04;;;;;;;;;;;;;;;17.55;100.00;101647.34;2613409;36;20038;-52
2022/05/19 03:21:35;;;;;;;;;;;;;;;17.63;100.00;101648.25;2613593;31;20069;-48
2022/05/19 03:24:03;;;;;;;;;;;;;;;17.55;100.00;101652.78;2614416;36;20545;-50
2022/05/19 03:26:31;;;;;;;;;;;;;;;17.61;100.00;101669.34;2613717;31;19947;-48
2022/05/19 03:28:59;;;;;;;;;;;;;;;17.89;100.00;101736.34;2613371;36;20947;-55
2022/05/19 03:31:27;;;;;;;;;;;;;;;18.31;100.00;101728.19;2612031;31;20025;-53
2022/05/19 03:33:55;;;;;;;;;;;;;;;18.64;100.00;101749.22;2613655;36;20415;-50
2022/05/19 03:36:23;;;;;;;;;;;;;;;18.85;100.00;101732.38;2613076;36;19981;-49
2022/05/19 03:38:54;;;;;;;;;;;;;;;19.00;100.00;101741.63;2613277;36;19950;-53
2022/05/19 03:41:21;;;;;;;;;;;;;;;19.08;100.00;101744.34;2613162;36;20042;-51
2022/05/19 03:43:49;;;;;;;;;;;;;;;19.00;100.00;101749.81;2614131;31;20435;-51
2022/05/19 03:46:17;;;;;;;;;;;;;;;18.94;100.00;101755.09;2612452;36;20086;-48
2022/05/19 03:48:45;;;;;;;;;;;;;;;18.98;100.00;101740.09;2613509;36;20061;-50
2022/05/19 03:51:19;;;;;;;;;;;;;;;18.94;100.00;101744.19;2612650;36;20534;-48
2022/05/19 03:53:47;;;;;;;;;;;;;;;18.86;100.00;101754.06;2613231;36;19946;-52
2022/05/19 03:56:18;;;;;;;;;;;;;;;18.84;100.00;101756.06;2613336;36;20476;-50
2022/05/19 03:58:46;;;;;;;;;;;;;;;18.70;100.00;101751.28;2612975;36;19958;-50
2022/05/19 04:01:14;;;;;;;;;;;;;;;18.65;100.00;101759.09;2612672;36;20440;-52
2022/05/19 04:03:42;;;;;;;;;;;;;;;18.41;100.00;101763.47;2613628;36;20041;-53
2022/05/19 04:06:10;;;;;;;;;;;;;;;18.26;100.00;101762.44;2613019;36;19994;-49
2022/05/19 04:08:39;;;;;;;;;;;;;;;18.12;100.00;101762.00;2613721;36;20471;-50
2022/05/19 04:11:07;;;;;;;;;;;;;;;18.07;100.00;101750.75;2614497;36;20070;-54
2022/05/19 04:13:37;;;;;;;;;;;;;;;17.99;100.00;101756.16;2614214;36;20065;-48
2022/05/19 04:16:06;;;;;;;;;;;;;;;17.84;100.00;101750.44;2613129;36;20551;-49
2022/05/19 04:18:34;;;;;;;;;;;;;;;17.70;100.00;101746.47;2613367;36;20061;-48
2022/05/19 04:21:02;;;;;;;;;;;;;;;17.71;100.00;101742.75;2613752;36;20041;-51
2022/05/19 04:23:30;;;;;;;;;;;;;;;17.60;100.00;101746.56;2612696;36;20069;-51
2022/05/19 04:25:58;;;;;;;;;;;;;;;17.57;100.00;101768.66;2612442;36;19962;-50
2022/05/19 04:28:26;;;;;;;;;;;;;;;17.43;100.00;101781.00;2612056;36;20474;-49
2022/05/19 04:30:57;;;;;;;;;;;;;;;17.50;100.00;101770.31;2612660;36;20082;-50
2022/05/19 04:33:25;;;;;;;;;;;;;;;17.47;100.00;101768.75;2612857;36;19950;-49
2022/05/19 04:35:53;;;;;;;;;;;;;;;17.37;100.00;101769.88;2612919;36;20049;-49
2022/05/19 04:38:21;;;;;;;;;;;;;;;17.35;100.00;101756.44;2613461;36;20360;-49
2022/05/19 04:40:50;;;;;;;;;;;;;;;17.32;100.00;101749.44;2614471;31;20533;-54
2022/05/19 04:43:21;;;;;;;;;;;;;;;17.36;100.00;101747.28;2613407;31;20037;-50
2022/05/19 04:45:49;;;;;;;;;;;;;;;17.40;100.00;101745.06;2612684;36;19947;-49
2022/05/19 04:48:20;;;;;;;;;;;;;;;17.37;100.00;101775.31;2612774;36;20001;-49
2022/05/19 04:50:49;;;;;;;;;;;;;;;17.30;100.00;101791.44;2614237;36;20407;-48
2022/05/19 04:53:17;;;;;;;;;;;;;;;17.23;100.00;101806.69;2613131;36;20806;-53
2022/05/19 04:55:45;;;;;;;;;;;;;;;17.19;100.00;101791.69;2612905;36;20482;-50
2022/05/19 04:58:13;;;;;;;;;;;;;;;17.16;100.00;101807.28;2613243;36;20045;-55
2022/05/19 05:00:41;;;;;;;;;;;;;;;17.13;100.00;101812.19;2611415;36;20332;-51
2022/05/19 05:03:09;;;;;;;;;;;;;;;17.09;100.00;101814.41;2612244;36;19950;-54
2022/05/19 05:05:40;;;;;;;;;;;;;;;17.14;100.00;101819.38;2612516;36;19976;-55
2022/05/19 05:08:08;;;;;;;;;;;;;;;17.23;100.00;101801.25;2612989;36;19981;-53
2022/05/19 05:10:36;;;;;;;;;;;;;;;17.17;100.00;101791.84;2612734;36;20078;-51
2022/05/19 05:13:06;;;;;;;;;;;;;;;17.17;100.00;101800.00;2612076;31;20030;-51
2022/05/19 05:15:34;;;;;;;;;;;;;;;17.16;100.00;101820.03;2612833;36;20492;-50
2022/05/19 05:18:04;;;;;;;;;;;;;;;17.22;100.00;101830.31;2613019;36;20049;-52
2022/05/19 05:20:33;;;;;;;;;;;;;;;17.20;100.00;101805.13;2612452;36;19955;-54
2022/05/19 05:23:03;;;;;;;;;;;;;;;17.20;100.00;101777.09;2611839;36;19966;-54
2022/05/19 05:25:32;;;;;;;;;;;;;;;17.25;100.00;101761.13;2612599;36;20045;-52
2022/05/19 05:28:00;;;;;;;;;;;;;;;17.17;100.00;101751.03;2611375;36;19950;-56
2022/05/19 05:30:28;;;;;;;;;;;;;;;17.22;100.00;101753.28;2611641;36;20043;-53
2022/05/19 05:32:56;;;;;;;;;;;;;;;17.20;100.00;101736.28;2613503;36;20071;-52
2022/05/19 05:35:31;;;;;;;;;;;;;;;17.34;100.00;101741.13;2614924;36;20082;-56
2022/05/19 05:37:58;;;;;;;;;;;;;;;17.32;100.00;101735.84;2612417;36;20440;-51
2022/05/19 05:40:29;;;;;;;;;;;;;;;17.29;100.00;101738.03;2611148;31;20462;-50
2022/05/19 05:42:57;;;;;;;;;;;;;;;17.20;100.00;101742.56;2612786;31;20566;-49
2022/05/19 05:45:25;;;;;;;;;;;;;;;17.31;100.00;101739.59;2611894;31;19953;-56
2022/05/19 05:47:53;;;;;;;;;;;;;;;17.33;100.00;101717.66;2612526;31;19988;-51
2022/05/19 05:50:21;;;;;;;;;;;;;;;17.17;100.00;101702.91;2613411;31;20515;-50
2022/05/19 05:52:49;;;;;;;;;;;;;;;17.25;100.00;101721.16;2610156;36;20078;-56
2022/05/19 05:55:18;;;;;;;;;;;;;;;17.18;100.00;101728.25;2612421;31;19947;-51
2022/05/19 05:57:54;;;;;;;;;;;;;;;17.14;100.00;101735.88;2613990;39;20409;-50
2022/05/19 06:00:23;;;;;;;;;;;;;;;17.06;100.00;101722.19;2614475;36;20026;-53
2022/05/19 06:02:51;;;;;;;;;;;;;;;17.07;100.00;101723.91;2613616;31;20284;-51
2022/05/19 06:05:21;;;;;;;;;;;;;;;16.99;100.00;101726.59;2613341;36;19951;-50
2022/05/19 06:07:49;;;;;;;;;;;;;;;17.08;100.00;101706.59;2614012;36;20571;-52
2022/05/19 06:10:17;;;;;;;;;;;;;;;17.03;100.00;101694.47;2613836;36;20116;-53
2022/05/19 06:12:45;;;;;;;;;;;;;;;17.27;100.00;101685.63;2614031;36;19950;-51
2022/05/19 06:15:16;;;;;;;;;;;;;;;17.41;100.00;101674.16;2613437;36;20038;-55
2022/05/19 06:17:47;;;;;;;;;;;;;;;17.37;100.00;101685.53;2615579;36;19965;-50
2022/05/19 06:20:17;;;;;;;;;;;;;;;17.65;100.00;101680.75;2613603;36;19959;-49
2022/05/19 06:22:46;;;;;;;;;;;;;;;17.67;100.00;101686.91;2613949;36;20415;-51
2022/05/19 06:25:15;;;;;;;;;;;;;;;17.76;100.00;101685.91;2613802;36;20057;-54
2022/05/19 06:27:44;;;;;;;;;;;;;;;17.70;100.00;101672.97;2613603;36;19993;-53
2022/05/19 06:30:12;;;;;;;;;;;;;;;17.87;100.00;101676.59;2613467;36;19970;-50
2022/05/19 06:32:47;;;;;;;;;;;;;;;17.87;100.00;101676.59;2613172;36;20038;-51
2022/05/19 06:35:17;;;;;;;;;;;;;;;17.85;100.00;101670.47;2613620;36;19947;-53
2022/05/19 06:37:45;;;;;;;;;;;;;;;18.02;100.00;101653.19;2613799;36;20481;-50
2022/05/19 06:40:15;;;;;;;;;;;;;;;18.27;100.00;101674.19;2613943;36;19950;-57
2022/05/19 06:42:43;;;;;;;;;;;;;;;18.10;100.00;101717.75;2613294;36;20066;-54
2022/05/19 06:45:12;;;;;;;;;;;;;;;17.95;100.00;101694.88;2613587;36;19947;-53
2022/05/19 06:47:40;;;;;;;;;;;;;;;18.11;100.00;101722.19;2613312;36;20321;-51
2022/05/19 06:50:13;;;;;;;;;;;;;;;18.15;100.00;101726.28;2613782;31;19950;-54
2022/05/19 06:52:44;;;;;;;;;;;;;;;18.15;100.00;101707.22;2613353;36;20310;-51
2022/05/19 06:55:13;;;;;;;;;;;;;;;18.46;100.00;101708.47;2613747;36;20046;-54
2022/05/19 06:57:41;;;;;;;;;;;;;;;18.64;100.00;101702.88;2613099;36;19998;-48
2022/05/19 07:00:11;;;;;;;;;;;;;;;18.83;100.00;101694.38;2611749;36;19962;-48
2022/05/19 07:02:39;;;;;;;;;;;;;;;18.86;100.00;101707.69;2613510;36;20436;-53
2022/05/19 07:05:07;;;;;;;;;;;;;;;18.78;100.00;101694.03;2613381;31;20073;-50
2022/05/19 07:07:38;;;;;;;;;;;;;;;18.98;100.00;101688.28;2614888;31;20479;-56
2022/05/19 07:10:06;;;;;;;;;;;;;;;19.00;100.00;101688.94;2613946;31;19946;-52
2022/05/19 07:12:35;;;;;;;;;;;;;;;19.04;100.00;101679.41;2613383;36;20073;-49
2022/05/19 07:15:03;;;;;;;;;;;;;;;19.22;100.00;101680.03;2612904;31;19946;-55
2022/05/19 07:17:31;;;;;;;;;;;;;;;19.34;100.00;101690.59;2613629;31;20029;-51
2022/05/19 07:22:42;;;;;;;;;;;;;;;19.51;100.00;101681.34;2611260;36;20429;-51
2022/05/19 07:25:11;;;;;;;;;;;;;;;19.58;100.00;101687.81;2612560;36;20034;-52
2022/05/19 07:27:40;;;;;;;;;;;;;;;19.65;100.00;101692.56;2613514;36;19946;-48
2022/05/19 07:30:08;;;;;;;;;;;;;;;19.64;100.00;101696.31;2613034;36;20046;-54
2022/05/19 07:32:36;;;;;;;;;;;;;;;19.83;100.00;101701.41;2613540;36;19950;-48
2022/05/19 07:35:04;;;;;;;;;;;;;;;19.77;100.00;101702.94;2613831;36;20543;-48
2022/05/19 07:37:32;;;;;;;;;;;;;;;20.16;100.00;101701.25;2614019;36;19981;-53
2022/05/19 07:40:04;;;;;;;;;;;;;;;20.25;100.00;101700.16;2613147;36;19947;-49
2022/05/19 07:42:32;;;;;;;;;;;;;;;20.48;100.00;101707.56;2612318;36;19950;-55
2022/05/19 07:45:01;;;;;;;;;;;;;;;20.61;100.00;101715.16;2613065;36;20079;-54
2022/05/19 07:47:29;;;;;;;;;;;;;;;20.62;100.00;101706.75;2613949;36;19954;-50
2022/05/19 07:49:57;;;;;;;;;;;;;;;20.97;100.00;101701.75;2613511;36;20014;-49
2022/05/19 07:52:26;;;;;;;;;;;;;;;20.90;100.00;101702.66;2613693;36;19981;-52
2022/05/19 07:54:55;;;;;;;;;;;;;;;20.76;100.00;101701.56;2612919;36;20356;-54
2022/05/19 07:57:26;;;;;;;;;;;;;;;20.86;100.00;101695.84;2612047;36;20116;-49
2022/05/19 07:59:54;;;;;;;;;;;;;;;21.26;100.00;101682.81;2613054;36;19977;-53
2022/05/19 08:02:22;;;;;;;;;;;;;;;21.49;100.00;101683.59;2613096;36;19951;-53
2022/05/19 08:04:51;;;;;;;;;;;;;;;21.52;100.00;101690.63;2612366;36;19972;-50
2022/05/19 08:07:19;;;;;;;;;;;;;;;21.02;100.00;101690.22;2613423;36;19946;-52
2022/05/19 08:17:53;;;;;;;;;;;;;;;21.78;100.00;101684.66;2613592;36;20050;-52
2022/05/19 08:20:21;;;;;;;;;;;;;;;21.88;100.00;101689.88;2613245;36;20066;-48
2022/05/19 08:22:49;;;;;;;;;;;;;;;21.85;100.00;101698.47;2612825;36;20114;-49
2022/05/19 08:25:17;;;;;;;;;;;;;;;21.90;100.00;101697.91;2612507;36;19954;-49
2022/05/19 08:27:48;;;;;;;;;;;;;;;21.88;100.00;101701.66;2613684;31;19951;-55
2022/05/19 08:30:16;;;;;;;;;;;;;;;22.27;100.00;101696.84;2613027;36;19970;-49
2022/05/19 08:32:45;;;;;;;;;;;;;;;22.33;100.00;101693.38;2613779;36;19953;-50
2022/05/19 08:35:13;;;;;;;;;;;;;;;22.61;100.00;101695.34;2612926;36;20444;-49
2022/05/19 08:37:41;;;;;;;;;;;;;;;22.38;100.00;101696.41;2613482;36;20004;-50
2022/05/19 08:40:10;;;;;;;;;;;;;;;21.87;100.00;101704.59;2613430;31;20073;-53
2022/05/19 08:42:41;;;;;;;;;;;;;;;22.27;100.00;101694.13;2613564;36;19957;-54
2022/05/19 08:45:17;;;;;;;;;;;;;;;22.83;100.00;101687.13;2612957;36;20117;-51
2022/05/19 08:47:45;;;;;;;;;;;;;;;23.06;100.00;101686.91;2613498;36;20034;-51
2022/05/19 08:50:19;;;;;;;;;;;;;;;23.30;100.00;101676.53;2612165;36;20054;-52
2022/05/19 08:52:49;;;;;;;;;;;;;;;23.40;100.00;101677.03;2613523;31;19954;-52
2022/05/19 08:55:18;;;;;;;;;;;;;;;23.38;100.00;101684.59;2613295;31;19969;-56
2022/05/19 08:57:52;;;;;;;;;;;;;;;23.51;100.00;101683.84;2614072;36;20580;-52
2022/05/19 09:00:26;;;;;;;;;;;;;;;23.93;100.00;101679.25;2612458;31;19955;-51
2022/05/19 09:03:05;;;;;;;;;;;;;;;24.02;100.00;101686.25;2613621;36;19946;-49
2022/05/19 09:05:42;;;;;;;;;;;;;;;23.76;100.00;101686.94;2614134;31;20456;-51
2022/05/19 09:08:16;;;;;;;;;;;;;;;23.63;100.00;101685.00;2613008;36;19950;-51
2022/05/19 09:10:51;;;;;;;;;;;;;;;23.89;100.00;101686.19;2613361;36;20306;-55
2022/05/19 09:13:26;;;;;;;;;;;;;;;24.21;100.00;101683.78;2614187;36;20370;-56
2022/05/19 09:15:57;;;;;;;;;;;;;;;23.98;100.00;101686.88;2613022;36;19985;-48
2022/05/19 09:18:32;;;;;;;;;;;;;;;23.62;100.00;101683.28;2613644;36;20571;-50
2022/05/19 09:21:00;;;;;;;;;;;;;;;23.12;100.00;101696.28;2613255;36;20433;-56
2022/05/19 09:23:29;;;;;;;;;;;;;;;23.51;100.00;101694.84;2613604;36;19953;-50
2022/05/19 09:26:04;;;;;;;;;;;;;;;23.54;100.00;101708.16;2613472;31;20034;-55
2022/05/19 09:28:32;;;;;;;;;;;;;;;23.82;100.00;101718.28;2613679;36;20533;-53
2022/05/19 09:31:02;;;;;;;;;;;;;;;23.80;100.00;101722.06;2613040;36;20046;-52
2022/05/19 09:33:32;;;;;;;;;;;;;;;23.03;100.00;101720.25;2613986;31;20058;-51
2022/05/19 09:36:02;;;;;;;;;;;;;;;22.66;100.00;101714.84;2613112;36;19968;-53
2022/05/19 09:38:33;;;;;;;;;;;;;;;22.51;100.00;101714.03;2631226;36;19965;-49
2022/05/19 09:41:03;;;;;;;;;;;;;;;22.75;100.00;101691.69;2612606;36;19951;-48
2022/05/19 09:43:33;;;;;;;;;;;;;;;23.21;100.00;101667.59;2613570;36;20030;-49
2022/05/19 09:46:11;;;;;;;;;;;;;;;23.39;100.00;101645.94;2613528;36;20348;-52
2022/05/19 09:48:43;;;;;;;;;;;;;;;23.94;100.00;101617.72;2613010;36;19958;-54
2022/05/19 09:51:14;;;;;;;;;;;;;;;23.88;100.00;101613.00;2613792;36;19950;-50
2022/05/19 09:53:43;;;;;;;;;;;;;;;24.30;100.00;101616.50;2613380;36;19950;-56
2022/05/19 09:56:13;;;;;;;;;;;;;;;24.02;100.00;101641.41;2613102;36;19947;-50
2022/05/19 09:58:45;;;;;;;;;;;;;;;24.26;100.00;101664.75;2612630;36;19954;-54
2022/05/19 10:01:21;;;;;;;;;;;;;;;24.78;100.00;101654.91;2612761;36;19946;-51
2022/05/19 10:03:53;;;;;;;;;;;;;;;24.84;100.00;101654.06;2613145;36;19973;-50
2022/05/19 10:06:23;;;;;;;;;;;;;;;24.80;100.00;101658.28;2612212;31;19947;-56
2022/05/19 10:09:00;;;;;;;;;;;;;;;24.72;100.00;101650.25;2613455;36;20366;-53
2022/05/19 10:11:30;;;;;;;;;;;;;;;25.82;100.00;101630.31;2613093;36;19984;-51
2022/05/19 10:14:00;;;;;;;;;;;;;;;25.81;100.00;101634.16;2613072;36;20477;-54
2022/05/19 10:16:36;;;;;;;;;;;;;;;25.29;100.00;101636.00;2613189;36;20513;-49
2022/05/19 10:19:13;;;;;;;;;;;;;;;24.58;100.00;101637.50;2612921;36;19981;-52
2022/05/19 10:21:54;;;;;;;;;;;;;;;24.90;100.00;101621.25;2612781;36;19973;-53
2022/05/19 10:24:29;;;;;;;;;;;;;;;25.52;100.00;101608.81;2613020;31;19972;-48
2022/05/19 10:32:45;;;;;;;;;;;;;;;26.00;100.00;101582.75;2612532;36;19962;-53
2022/05/19 10:35:22;;;;;;;;;;;;;;;25.95;100.00;101559.63;2613244;36;19951;-49
2022/05/19 10:37:59;;;;;;;;;;;;;;;26.30;100.00;101549.00;2613141;36;19972;-51
2022/05/19 10:40:35;;;;;;;;;;;;;;;26.13;100.00;101550.63;2612917;36;19954;-50
2022/05/19 10:43:11;;;;;;;;;;;;;;;25.63;100.00;101545.81;2612503;36;19953;-51
2022/05/19 10:45:40;;;;;;;;;;;;;;;25.80;100.00;101533.19;2612863;36;19969;-53
2022/05/19 10:48:18;;;;;;;;;;;;;;;25.66;100.00;101537.97;2613307;31;20310;-49
2022/05/19 10:50:55;;;;;;;;;;;;;;;25.78;100.00;101535.34;2613260;36;20490;-55
2022/05/19 10:53:44;;;;;;;;;;;;;;;26.31;100.00;101544.31;2613832;32;19958;-50
2022/05/19 10:56:29;;;;;;;;;;;;;;;25.92;100.00;101552.63;2613736;31;19947;-53
2022/05/19 10:59:03;;;;;;;;;;;;;;;26.32;100.00;101548.78;2614169;36;19946;-53
2022/05/19 11:01:38;;;;;;;;;;;;;;;26.67;100.00;101562.09;2614568;36;19968;-54
2022/05/19 11:04:24;;;;;;;;;;;;;;;26.46;100.00;101558.66;2613570;36;20431;-54
2022/05/19 11:07:07;;;;;;;;;;;;;;;26.38;100.00;101572.72;2613562;36;19950;-47
2022/05/19 11:09:40;;;;;;;;;;;;;;;26.11;100.00;101575.69;2614260;36;19951;-51
2022/05/19 11:12:12;;;;;;;;;;;;;;;25.85;100.00;101574.75;2613899;36;19993;-52
2022/05/19 11:14:55;;;;;;;;;;;;;;;25.39;100.00;101572.22;2613457;36;19950;-51
2022/05/19 11:17:30;;;;;;;;;;;;;;;25.54;100.00;101578.28;2613245;36;20789;-53
2022/05/19 11:20:03;;;;;;;;;;;;;;;25.28;100.00;101573.69;2614156;36;20448;-53
2022/05/19 11:22:37;;;;;;;;;;;;;;;25.26;100.00;101589.59;2613943;36;20355;-55
2022/05/19 11:27:51;;;;;;;;;;;;;;;24.84;100.00;101590.72;2613694;36;19958;-49
2022/05/19 11:30:21;;;;;;;;;;;;;;;24.71;100.00;101590.75;2613310;36;20465;-48
2022/05/19 11:32:52;;;;;;;;;;;;;;;24.74;100.00;101595.00;2614289;36;20528;-52
2022/05/19 11:35:22;;;;;;;;;;;;;;;24.61;100.00;101579.31;2613291;36;19985;-50
2022/05/19 11:37:58;;;;;;;;;;;;;;;24.48;100.00;101578.25;2613976;36;19954;-49
2022/05/19 11:40:32;;;;;;;;;;;;;;;24.34;100.00;101586.66;2614337;31;20034;-54
2022/05/19 11:43:04;;;;;;;;;;;;;;;24.34;100.00;101590.28;2613558;36;20343;-57
2022/05/19 11:45:35;;;;;;;;;;;;;;;24.15;100.00;101597.44;2612971;36;19980;-52
2022/05/19 11:56:18;;;;;;;;;;;;;;;23.51;100.00;101628.91;2612970;36;19985;-50
2022/05/19 11:58:46;;;;;;;;;;;;;;;23.52;100.00;101627.84;2613842;36;19985;-54
2022/05/19 12:01:17;;;;;;;;;;;;;;;22.84;100.00;101637.50;2613423;36;20548;-57
2022/05/19 12:03:47;;;;;;;;;;;;;;;22.72;100.00;101678.38;2613364;36;19954;-52
2022/05/19 12:06:20;;;;;;;;;;;;;;;22.50;100.00;101695.88;2613110;36;20445;-53
2022/05/19 12:08:59;;;;;;;;;;;;;;;21.99;100.00;101703.06;2613758;36;19968;-51
2022/05/19 12:11:29;;;;;;;;;;;;;;;21.78;100.00;101708.50;2613754;36;20041;-53
2022/05/19 12:14:09;;;;;;;;;;;;;;;21.42;100.00;101734.69;2613558;31;20374;-54
2022/05/19 12:16:52;;;;;;;;;;;;;;;21.28;100.00;101779.31;2615630;36;20046;-49
2022/05/19 12:19:36;;;;;;;;;;;;;;;21.00;100.00;101857.38;2613436;36;19981;-53
2022/05/19 12:22:05;;;;;;;;;;;;;;;19.98;100.00;101889.19;2612538;31;19973;-50
2022/05/19 12:24:39;;;;;;;;;;;;;;;19.29;100.00;101889.50;2612101;36;19950;-49
2022/05/19 12:27:12;;;;;;;;;;;;;;;19.04;100.00;101876.69;2613800;36;19946;-52
2022/05/19 12:29:43;;;;;;;;;;;;;;;19.00;100.00;101877.19;2612553;36;20053;-49
2022/05/19 12:32:24;;;;;;;;;;;;;;;18.77;100.00;101888.69;2613248;36;19989;-49
2022/05/19 12:34:56;;;;;;;;;;;;;;;18.64;100.00;101899.19;2614261;31;19946;-51
2022/05/19 12:37:36;;;;;;;;;;;;;;;18.59;100.00;101887.94;2613586;36;20050;-49
2022/05/19 12:40:27;;;;;;;;;;;;;;;18.70;100.00;101874.00;2612978;31;20085;-52
2022/05/19 12:43:16;;;;;;;;;;;;;;;18.50;100.00;101863.34;2613218;36;19953;-54
2022/05/19 12:45:46;;;;;;;;;;;;;;;18.55;100.00;101843.75;2613614;36;19951;-49
2022/05/19 12:48:44;;;;;;;;;;;;;;;18.56;100.00;101840.91;2613549;36;19983;-50
2022/05/19 12:51:14;;;;;;;;;;;;;;;18.55;100.00;101852.81;2613225;36;19951;-49
2022/05/19 12:53:44;;;;;;;;;;;;;;;18.52;100.00;101834.06;2613894;36;19955;-52
2022/05/19 12:56:35;;;;;;;;;;;;;;;18.56;100.00;101815.50;2614065;31;20045;-53
2022/05/19 12:59:07;;;;;;;;;;;;;;;18.73;100.00;101786.41;2613956;36;19974;-52
2022/05/19 13:01:36;;;;;;;;;;;;;;;18.68;100.00;101746.00;2614210;36;20042;-53
2022/05/19 13:04:13;;;;;;;;;;;;;;;18.74;100.00;101750.78;2614063;36;20420;-53
2022/05/19 13:06:45;;;;;;;;;;;;;;;18.82;100.00;101760.84;2613925;36;20436;-50
2022/05/19 13:09:14;;;;;;;;;;;;;;;18.72;100.00;101761.00;2614738;31;20016;-53
2022/05/19 13:11:52;;;;;;;;;;;;;;;18.67;100.00;101748.91;2614294;36;20030;-55
2022/05/19 13:14:27;;;;;;;;;;;;;;;18.40;100.00;101761.78;2614266;36;19956;-52